createdAt,value
2018-08-06T00:00:07.509Z,20.34
2018-08-06T00:01:07.496Z,20.34
2018-08-06T00:02:07.489Z,20.33
2018-08-06T00:03:07.512Z,20.35
2018-08-06T00:04:07.464Z,20.31
2018-08-06T00:05:07.454Z,20.30
2018-08-06T00:06:07.444Z,20.35
2018-08-06T00:07:07.435Z,20.30
2018-08-06T00:08:07.426Z,20.27
2018-08-06T00:09:07.421Z,20.23
2018-08-06T00:10:07.404Z,20.20
2018-08-06T00:11:07.396Z,20.10
2018-08-06T00:12:07.399Z,20.15
2018-08-06T00:13:07.371Z,20.10
2018-08-06T00:14:07.390Z,20.13
2018-08-06T00:15:07.351Z,20.12
2018-08-06T00:16:07.342Z,19.97
2018-08-06T00:17:07.326Z,19.97
2018-08-06T00:18:07.320Z,20.01
2018-08-06T00:19:07.340Z,19.98
2018-08-06T00:20:07.301Z,20.00
2018-08-06T00:21:07.295Z,20.02
2018-08-06T00:22:07.275Z,20.00
2018-08-06T00:23:07.272Z,19.87
2018-08-06T00:24:07.291Z,19.90
2018-08-06T00:25:07.214Z,19.98
2018-08-06T00:26:07.195Z,20.02
2018-08-06T00:27:07.224Z,19.95
2018-08-06T00:28:07.368Z,20.04
2018-08-06T00:29:07.223Z,19.92
2018-08-06T00:30:07.189Z,19.97
2018-08-06T00:31:07.179Z,19.90
2018-08-06T00:32:07.166Z,19.90
2018-08-06T00:33:07.154Z,19.95
2018-08-06T00:34:07.176Z,19.94
2018-08-06T00:35:07.136Z,19.95
2018-08-06T00:36:07.126Z,19.87
2018-08-06T00:37:07.114Z,19.90
2018-08-06T00:38:07.104Z,19.87
2018-08-06T00:39:07.120Z,19.95
2018-08-06T00:40:07.084Z,19.82
2018-08-06T00:41:07.027Z,19.82
2018-08-06T00:42:07.063Z,19.80
2018-08-06T00:43:07.053Z,19.80
2018-08-06T00:44:07.070Z,19.82
2018-08-06T00:45:06.995Z,19.82
2018-08-06T00:46:06.979Z,19.70
2018-08-06T00:47:07.005Z,19.76
2018-08-06T00:48:06.998Z,19.76
2018-08-06T00:49:07.097Z,19.76
2018-08-06T00:50:06.973Z,19.78
2018-08-06T00:51:06.960Z,19.86
2018-08-06T00:52:06.956Z,19.76
2018-08-06T00:53:06.940Z,19.78
2018-08-06T00:54:06.959Z,19.80
2018-08-06T00:55:06.922Z,19.82
2018-08-06T00:56:06.916Z,19.70
2018-08-06T00:57:06.904Z,19.78
2018-08-06T00:58:06.848Z,19.75
2018-08-06T00:59:06.903Z,19.68
2018-08-06T01:00:06.871Z,19.68
2018-08-06T01:01:06.858Z,19.80
2018-08-06T01:02:06.846Z,19.68
2018-08-06T01:03:06.832Z,19.71
2018-08-06T01:04:06.852Z,19.71
2018-08-06T01:05:06.772Z,19.62
2018-08-06T01:06:06.803Z,19.65
2018-08-06T01:07:06.791Z,19.67
2018-08-06T01:08:06.854Z,19.67
2018-08-06T01:09:06.746Z,19.62
2018-08-06T01:10:06.753Z,19.67
2018-08-06T01:11:06.708Z,19.62
2018-08-06T01:12:06.737Z,19.64
2018-08-06T01:13:06.727Z,19.70
2018-08-06T01:14:06.711Z,19.62
2018-08-06T01:15:06.731Z,19.61
2018-08-06T01:16:06.695Z,19.50
2018-08-06T01:17:06.685Z,19.58
2018-08-06T01:18:06.682Z,19.60
2018-08-06T01:19:06.663Z,19.57
2018-08-06T01:20:06.676Z,19.58
2018-08-06T01:21:06.610Z,19.58
2018-08-06T01:22:06.628Z,19.62
2018-08-06T01:23:06.618Z,19.58
2018-08-06T01:24:06.616Z,19.53
2018-08-06T01:25:06.621Z,19.58
2018-08-06T01:26:06.590Z,19.62
2018-08-06T01:27:06.570Z,19.52
2018-08-06T01:28:06.561Z,19.39
2018-08-06T01:29:06.564Z,19.45
2018-08-06T01:30:06.571Z,19.45
2018-08-06T01:31:06.533Z,19.46
2018-08-06T01:32:06.523Z,19.49
2018-08-06T01:33:14.177Z,19.42
2018-08-06T01:34:06.509Z,19.49
2018-08-06T01:35:06.516Z,19.42
2018-08-06T01:36:06.485Z,19.35
2018-08-06T01:37:06.471Z,19.35
2018-08-06T01:38:06.463Z,19.28
2018-08-06T01:39:06.446Z,19.30
2018-08-06T01:40:06.466Z,19.24
2018-08-06T01:41:06.436Z,19.24
2018-08-06T01:42:06.415Z,19.24
2018-08-06T01:43:06.401Z,19.28
2018-08-06T01:44:06.399Z,19.24
2018-08-06T01:45:06.578Z,19.25
2018-08-06T01:46:06.333Z,19.27
2018-08-06T01:47:06.315Z,19.30
2018-08-06T01:48:06.366Z,19.17
2018-08-06T01:49:06.341Z,19.27
2018-08-06T01:50:06.357Z,19.20
2018-08-06T01:51:06.314Z,19.15
2018-08-06T01:52:06.300Z,19.12
2018-08-06T01:53:06.307Z,19.23
2018-08-06T01:54:06.310Z,19.02
2018-08-06T01:55:06.294Z,19.12
2018-08-06T01:56:06.262Z,19.06
2018-08-06T01:57:06.246Z,18.99
2018-08-06T01:58:06.246Z,19.05
2018-08-06T01:59:06.226Z,19.06
2018-08-06T02:00:06.207Z,19.05
2018-08-06T02:01:06.319Z,19.02
2018-08-06T02:02:06.201Z,18.96
2018-08-06T02:03:06.135Z,18.90
2018-08-06T02:04:06.246Z,18.94
2018-08-06T02:05:06.185Z,18.90
2018-08-06T02:06:06.157Z,18.96
2018-08-06T02:07:06.140Z,18.94
2018-08-06T02:08:06.128Z,18.90
2018-08-06T02:09:06.115Z,18.90
2018-08-06T02:10:06.132Z,18.87
2018-08-06T02:11:06.099Z,18.84
2018-08-06T02:12:06.088Z,18.83
2018-08-06T02:13:06.071Z,18.86
2018-08-06T02:14:06.064Z,18.83
2018-08-06T02:15:06.080Z,18.84
2018-08-06T02:16:06.039Z,18.74
2018-08-06T02:17:05.994Z,18.86
2018-08-06T02:18:06.020Z,18.71
2018-08-06T02:19:06.003Z,18.82
2018-08-06T02:20:06.022Z,18.83
2018-08-06T02:21:05.982Z,18.76
2018-08-06T02:22:05.972Z,18.75
2018-08-06T02:23:05.969Z,18.83
2018-08-06T02:24:05.952Z,18.72
2018-08-06T02:25:06.064Z,18.78
2018-08-06T02:26:05.937Z,18.71
2018-08-06T02:27:05.913Z,18.75
2018-08-06T02:28:05.866Z,18.76
2018-08-06T02:29:05.909Z,18.71
2018-08-06T02:30:05.912Z,18.75
2018-08-06T02:31:05.886Z,18.75
2018-08-06T02:32:05.873Z,18.59
2018-08-06T02:33:05.856Z,18.65
2018-08-06T02:34:05.855Z,18.68
2018-08-06T02:35:05.894Z,18.74
2018-08-06T02:36:05.820Z,18.72
2018-08-06T02:37:05.817Z,18.71
2018-08-06T02:38:05.801Z,18.64
2018-08-06T02:39:05.788Z,18.57
2018-08-06T02:40:05.801Z,18.60
2018-08-06T02:41:05.726Z,18.71
2018-08-06T02:42:05.760Z,18.68
2018-08-06T02:43:05.794Z,18.69
2018-08-06T02:44:05.693Z,18.74
2018-08-06T02:45:05.741Z,18.71
2018-08-06T02:46:05.713Z,18.72
2018-08-06T02:47:05.694Z,18.68
2018-08-06T02:48:05.690Z,18.68
2018-08-06T02:49:05.677Z,18.71
2018-08-06T02:50:05.680Z,18.66
2018-08-06T02:51:05.687Z,18.66
2018-08-06T02:52:05.604Z,18.71
2018-08-06T02:53:05.642Z,18.71
2018-08-06T02:54:05.576Z,18.66
2018-08-06T02:55:05.614Z,18.60
2018-08-06T02:56:05.632Z,18.62
2018-08-06T02:57:05.617Z,18.64
2018-08-06T02:58:05.532Z,18.66
2018-08-06T02:59:05.563Z,18.60
2018-08-06T03:00:05.583Z,18.62
2018-08-06T03:01:05.590Z,18.56
2018-08-06T03:02:05.535Z,18.66
2018-08-06T03:03:05.527Z,18.57
2018-08-06T03:04:05.514Z,18.53
2018-08-06T03:05:05.504Z,18.53
2018-08-06T03:06:05.533Z,18.42
2018-08-06T03:07:05.481Z,18.49
2018-08-06T03:08:05.462Z,18.46
2018-08-06T03:09:05.415Z,18.38
2018-08-06T03:10:05.427Z,18.47
2018-08-06T03:11:05.456Z,18.41
2018-08-06T03:12:05.424Z,18.34
2018-08-06T03:13:05.408Z,18.41
2018-08-06T03:14:05.398Z,18.38
2018-08-06T03:15:05.389Z,18.35
2018-08-06T03:16:05.406Z,18.29
2018-08-06T03:17:05.402Z,18.28
2018-08-06T03:18:05.315Z,18.28
2018-08-06T03:19:05.344Z,18.26
2018-08-06T03:20:05.334Z,18.26
2018-08-06T03:21:05.366Z,18.26
2018-08-06T03:22:05.317Z,18.16
2018-08-06T03:23:05.257Z,18.25
2018-08-06T03:24:05.292Z,18.20
2018-08-06T03:25:05.285Z,18.23
2018-08-06T03:26:05.295Z,18.11
2018-08-06T03:27:05.263Z,18.14
2018-08-06T03:28:05.199Z,18.11
2018-08-06T03:29:05.190Z,18.14
2018-08-06T03:30:05.223Z,18.02
2018-08-06T03:31:05.187Z,18.13
2018-08-06T03:32:05.209Z,18.07
2018-08-06T03:33:05.186Z,18.09
2018-08-06T03:34:05.135Z,18.09
2018-08-06T03:35:05.166Z,18.07
2018-08-06T03:36:05.181Z,18.01
2018-08-06T03:37:05.102Z,18.04
2018-08-06T03:38:05.135Z,17.98
2018-08-06T03:39:05.119Z,17.89
2018-08-06T03:40:05.077Z,17.91
2018-08-06T03:41:05.127Z,17.91
2018-08-06T03:42:05.091Z,17.95
2018-08-06T03:43:05.084Z,17.91
2018-08-06T03:44:05.026Z,17.89
2018-08-06T03:45:05.058Z,17.89
2018-08-06T03:46:05.079Z,17.86
2018-08-06T03:47:05.040Z,17.92
2018-08-06T03:48:05.023Z,17.91
2018-08-06T03:49:05.017Z,17.96
2018-08-06T03:50:04.968Z,17.87
2018-08-06T03:51:05.018Z,17.87
2018-08-06T03:52:04.952Z,17.95
2018-08-06T03:53:04.931Z,17.87
2018-08-06T03:54:04.959Z,17.91
2018-08-06T03:55:04.953Z,17.91
2018-08-06T03:56:04.936Z,17.92
2018-08-06T03:57:04.956Z,17.94
2018-08-06T03:58:04.869Z,17.86
2018-08-06T03:59:04.857Z,17.91
2018-08-06T04:00:04.847Z,17.92
2018-08-06T04:01:04.885Z,17.84
2018-08-06T04:02:04.904Z,17.84
2018-08-06T04:03:04.880Z,17.83
2018-08-06T04:04:04.805Z,17.81
2018-08-06T04:05:04.840Z,17.80
2018-08-06T04:06:04.831Z,17.80
2018-08-06T04:07:04.859Z,17.79
2018-08-06T04:08:04.812Z,17.81
2018-08-06T04:09:04.761Z,17.79
2018-08-06T04:10:04.789Z,17.76
2018-08-06T04:11:04.776Z,17.71
2018-08-06T04:12:04.799Z,17.83
2018-08-06T04:13:04.764Z,17.79
2018-08-06T04:14:04.806Z,17.79
2018-08-06T04:15:04.735Z,17.68
2018-08-06T04:16:04.731Z,17.77
2018-08-06T04:17:04.761Z,17.79
2018-08-06T04:18:04.708Z,17.77
2018-08-06T04:19:04.699Z,17.73
2018-08-06T04:20:04.683Z,17.76
2018-08-06T04:21:04.673Z,17.79
2018-08-06T04:22:04.682Z,17.73
2018-08-06T04:23:04.647Z,17.76
2018-08-06T04:24:04.638Z,17.71
2018-08-06T04:25:04.582Z,17.68
2018-08-06T04:26:04.615Z,17.76
2018-08-06T04:27:04.628Z,17.68
2018-08-06T04:28:04.599Z,17.68
2018-08-06T04:29:04.581Z,17.63
2018-08-06T04:30:04.554Z,17.84
2018-08-06T04:31:04.522Z,17.71
2018-08-06T04:32:04.590Z,17.77
2018-08-06T04:33:04.551Z,17.87
2018-08-06T04:34:04.537Z,17.79
2018-08-06T04:35:04.469Z,17.81
2018-08-06T04:36:04.511Z,17.74
2018-08-06T04:37:04.537Z,17.73
2018-08-06T04:38:04.482Z,17.73
2018-08-06T04:39:04.475Z,17.74
2018-08-06T04:40:04.425Z,17.79
2018-08-06T04:41:04.455Z,17.80
2018-08-06T04:42:04.478Z,17.87
2018-08-06T04:43:04.431Z,17.79
2018-08-06T04:44:04.425Z,17.86
2018-08-06T04:45:04.405Z,17.77
2018-08-06T04:46:04.400Z,17.89
2018-08-06T04:47:04.415Z,17.95
2018-08-06T04:48:04.377Z,17.96
2018-08-06T04:49:04.329Z,17.94
2018-08-06T04:50:04.374Z,17.99
2018-08-06T04:51:04.341Z,17.95
2018-08-06T04:52:04.306Z,17.94
2018-08-06T04:53:04.318Z,18.09
2018-08-06T04:54:04.340Z,18.07
2018-08-06T04:55:04.297Z,18.05
2018-08-06T04:56:04.242Z,18.04
2018-08-06T04:57:04.351Z,18.14
2018-08-06T04:58:04.265Z,18.14
2018-08-06T04:59:04.255Z,18.25
2018-08-06T05:00:04.204Z,18.26
2018-08-06T05:01:04.236Z,18.26
2018-08-06T05:02:04.275Z,18.29
2018-08-06T05:03:04.207Z,18.38
2018-08-06T05:04:04.197Z,18.34
2018-08-06T05:05:04.227Z,18.41
2018-08-06T05:06:04.181Z,18.53
2018-08-06T05:07:04.240Z,18.56
2018-08-06T05:08:04.156Z,18.57
2018-08-06T05:09:04.137Z,18.68
2018-08-06T05:10:04.095Z,18.76
2018-08-06T05:11:04.118Z,18.72
2018-08-06T05:12:04.111Z,18.84
2018-08-06T05:13:04.128Z,18.94
2018-08-06T05:14:04.089Z,19.02
2018-08-06T05:15:04.034Z,19.12
2018-08-06T05:16:04.063Z,19.10
2018-08-06T05:17:04.060Z,19.28
2018-08-06T05:18:04.067Z,19.39
2018-08-06T05:19:04.004Z,19.39
2018-08-06T05:20:04.032Z,19.49
2018-08-06T05:21:04.015Z,19.45
2018-08-06T05:22:04.008Z,19.40
2018-08-06T05:23:03.967Z,19.58
2018-08-06T05:24:03.980Z,19.52
2018-08-06T05:25:03.964Z,19.52
2018-08-06T05:26:04.071Z,19.55
2018-08-06T05:27:03.956Z,19.67
2018-08-06T05:28:03.965Z,19.79
2018-08-06T05:29:03.954Z,19.79
2018-08-06T05:30:03.920Z,19.94
2018-08-06T05:31:03.898Z,19.87
2018-08-06T05:32:03.889Z,19.79
2018-08-06T05:33:03.907Z,19.70
2018-08-06T05:34:03.835Z,19.64
2018-08-06T05:35:03.861Z,19.79
2018-08-06T05:36:03.853Z,19.72
2018-08-06T05:37:03.850Z,19.78
2018-08-06T05:38:03.850Z,19.83
2018-08-06T05:39:03.818Z,19.79
2018-08-06T05:40:03.831Z,19.80
2018-08-06T05:41:03.815Z,19.79
2018-08-06T05:42:03.783Z,19.76
2018-08-06T05:43:03.799Z,19.80
2018-08-06T05:44:03.760Z,19.82
2018-08-06T05:45:03.750Z,19.78
2018-08-06T05:46:03.745Z,19.75
2018-08-06T05:47:03.732Z,19.71
2018-08-06T05:48:03.703Z,19.72
2018-08-06T05:49:03.707Z,19.64
2018-08-06T05:50:03.748Z,19.65
2018-08-06T05:51:03.688Z,19.72
2018-08-06T05:52:03.678Z,19.70
2018-08-06T05:53:03.745Z,19.72
2018-08-06T05:54:03.655Z,19.76
2018-08-06T05:55:03.652Z,19.82
2018-08-06T05:56:03.629Z,19.80
2018-08-06T05:57:03.634Z,19.80
2018-08-06T05:58:03.636Z,19.83
2018-08-06T05:59:03.601Z,19.85
2018-08-06T06:00:03.592Z,19.83
2018-08-06T06:01:03.582Z,19.86
2018-08-06T06:02:03.565Z,19.92
2018-08-06T06:03:03.577Z,19.98
2018-08-06T06:04:03.548Z,19.90
2018-08-06T06:05:03.548Z,19.92
2018-08-06T06:06:03.560Z,20.01
2018-08-06T06:07:03.527Z,19.97
2018-08-06T06:08:03.489Z,20.00
2018-08-06T06:09:03.514Z,20.07
2018-08-06T06:10:03.486Z,20.13
2018-08-06T06:11:03.476Z,20.22
2018-08-06T06:12:03.454Z,20.17
2018-08-06T06:13:03.447Z,20.22
2018-08-06T06:14:03.443Z,20.22
2018-08-06T06:15:03.427Z,20.34
2018-08-06T06:16:03.422Z,20.30
2018-08-06T06:17:03.412Z,20.37
2018-08-06T06:18:03.380Z,20.33
2018-08-06T06:19:03.422Z,20.37
2018-08-06T06:20:03.385Z,20.51
2018-08-06T06:21:03.372Z,20.63
2018-08-06T06:22:03.314Z,20.60
2018-08-06T06:23:03.370Z,21.01
2018-08-06T06:24:03.286Z,21.77
2018-08-06T06:25:03.345Z,22.45
2018-08-06T06:26:03.312Z,23.45
2018-08-06T06:27:03.302Z,24.19
2018-08-06T06:28:03.311Z,24.86
2018-08-06T06:29:03.275Z,25.60
2018-08-06T06:30:03.273Z,26.19
2018-08-06T06:31:03.260Z,26.35
2018-08-06T06:32:03.241Z,26.84
2018-08-06T06:33:03.286Z,27.27
2018-08-06T06:34:03.222Z,27.74
2018-08-06T06:35:03.208Z,28.11
2018-08-06T06:36:03.206Z,28.32
2018-08-06T06:37:03.149Z,28.32
2018-08-06T06:38:03.232Z,28.70
2018-08-06T06:39:03.218Z,28.92
2018-08-06T06:40:03.241Z,29.10
2018-08-06T06:41:03.116Z,29.25
2018-08-06T06:42:03.271Z,29.62
2018-08-06T06:43:06.106Z,29.79
2018-08-06T06:44:03.308Z,29.86
2018-08-06T06:45:03.112Z,29.81
2018-08-06T06:46:03.054Z,30.28
2018-08-06T06:47:03.090Z,30.67
2018-08-06T06:48:03.074Z,30.73
2018-08-06T06:49:03.213Z,30.79
2018-08-06T06:50:03.070Z,31.23
2018-08-06T06:51:03.047Z,31.47
2018-08-06T06:52:03.044Z,31.71
2018-08-06T06:53:02.990Z,31.71
2018-08-06T06:54:03.051Z,31.69
2018-08-06T06:55:03.003Z,32.02
2018-08-06T06:56:02.997Z,31.84
2018-08-06T06:57:02.981Z,31.67
2018-08-06T06:58:02.935Z,31.75
2018-08-06T06:59:02.990Z,31.91
2018-08-06T07:00:02.972Z,32.34
2018-08-06T07:01:02.903Z,32.46
2018-08-06T07:02:02.935Z,32.43
2018-08-06T07:03:02.878Z,32.65
2018-08-06T07:04:02.968Z,32.63
2018-08-06T07:05:02.874Z,32.72
2018-08-06T07:06:02.900Z,32.65
2018-08-06T07:07:02.882Z,32.27
2018-08-06T07:08:02.874Z,32.35
2018-08-06T07:09:02.884Z,32.59
2018-08-06T07:10:02.856Z,32.77
2018-08-06T07:11:02.804Z,33.03
2018-08-06T07:12:02.843Z,33.22
2018-08-06T07:13:02.820Z,33.37
2018-08-06T07:14:02.849Z,33.65
2018-08-06T07:15:02.756Z,34.11
2018-08-06T07:16:02.794Z,34.09
2018-08-06T07:17:02.798Z,33.87
2018-08-06T07:18:02.733Z,34.18
2018-08-06T07:19:02.791Z,34.37
2018-08-06T07:20:02.718Z,34.40
2018-08-06T07:21:02.740Z,34.42
2018-08-06T07:22:02.730Z,34.38
2018-08-06T07:23:02.725Z,34.49
2018-08-06T07:24:02.744Z,34.46
2018-08-06T07:25:02.701Z,34.38
2018-08-06T07:26:02.859Z,34.61
2018-08-06T07:27:02.682Z,34.95
2018-08-06T07:28:02.675Z,34.99
2018-08-06T07:29:02.698Z,35.09
2018-08-06T07:30:02.651Z,34.72
2018-08-06T07:31:02.647Z,34.50
2018-08-06T07:32:02.631Z,34.26
2018-08-06T07:33:02.618Z,34.09
2018-08-06T07:34:02.635Z,33.86
2018-08-06T07:35:02.575Z,33.78
2018-08-06T07:36:02.586Z,33.87
2018-08-06T07:37:02.581Z,33.60
2018-08-06T07:38:02.568Z,33.24
2018-08-06T07:39:02.576Z,33.31
2018-08-06T07:40:02.504Z,33.40
2018-08-06T07:41:02.552Z,33.35
2018-08-06T07:42:02.640Z,33.45
2018-08-06T07:43:02.536Z,33.34
2018-08-06T07:44:02.537Z,33.34
2018-08-06T07:45:02.516Z,33.33
2018-08-06T07:46:02.496Z,33.44
2018-08-06T07:47:02.543Z,33.56
2018-08-06T07:48:02.475Z,33.66
2018-08-06T07:49:02.480Z,34.00
2018-08-06T07:50:02.445Z,33.86
2018-08-06T07:51:02.438Z,33.86
2018-08-06T07:52:02.432Z,34.23
2018-08-06T07:53:02.385Z,34.43
2018-08-06T07:54:02.464Z,34.45
2018-08-06T07:55:02.398Z,34.45
2018-08-06T07:56:02.349Z,34.31
2018-08-06T07:57:02.380Z,34.31
2018-08-06T07:58:02.374Z,33.94
2018-08-06T07:59:02.390Z,34.09
2018-08-06T08:00:02.342Z,34.05
2018-08-06T08:01:02.359Z,33.96
2018-08-06T08:02:02.288Z,33.77
2018-08-06T08:03:02.323Z,33.79
2018-08-06T08:04:02.308Z,33.94
2018-08-06T08:05:02.324Z,33.86
2018-08-06T08:06:02.286Z,33.97
2018-08-06T08:07:02.289Z,33.86
2018-08-06T08:08:02.268Z,33.89
2018-08-06T08:09:02.257Z,34.19
2018-08-06T08:10:02.278Z,34.42
2018-08-06T08:11:02.241Z,34.48
2018-08-06T08:12:02.298Z,34.55
2018-08-06T08:13:02.219Z,34.76
2018-08-06T08:14:02.210Z,34.78
2018-08-06T08:15:02.234Z,35.15
2018-08-06T08:16:02.188Z,35.22
2018-08-06T08:17:02.178Z,35.03
2018-08-06T08:18:02.169Z,35.02
2018-08-06T08:19:02.116Z,35.34
2018-08-06T08:20:02.236Z,35.47
2018-08-06T08:21:02.139Z,35.44
2018-08-06T08:22:02.122Z,35.21
2018-08-06T08:23:02.121Z,35.36
2018-08-06T08:24:02.108Z,35.29
2018-08-06T08:25:02.128Z,35.29
2018-08-06T08:26:02.096Z,35.56
2018-08-06T08:27:02.080Z,35.56
2018-08-06T08:28:02.043Z,35.20
2018-08-06T08:29:02.086Z,34.65
2018-08-06T08:30:02.073Z,34.60
2018-08-06T08:31:02.042Z,34.65
2018-08-06T08:32:02.007Z,34.75
2018-08-06T08:33:02.032Z,34.63
2018-08-06T08:34:02.085Z,34.42
2018-08-06T08:35:01.981Z,34.43
2018-08-06T08:36:02.010Z,34.27
2018-08-06T08:37:01.939Z,34.28
2018-08-06T08:38:01.939Z,34.30
2018-08-06T08:39:01.961Z,34.23
2018-08-06T08:40:01.998Z,34.15
2018-08-06T08:41:01.910Z,34.06
2018-08-06T08:42:01.942Z,33.74
2018-08-06T08:43:01.971Z,33.74
2018-08-06T08:44:01.917Z,33.77
2018-08-06T08:45:01.947Z,33.81
2018-08-06T08:46:01.897Z,33.94
2018-08-06T08:47:01.833Z,33.78
2018-08-06T08:48:01.875Z,33.68
2018-08-06T08:49:01.824Z,33.50
2018-08-06T08:50:01.895Z,33.31
2018-08-06T08:51:01.822Z,32.95
2018-08-06T08:52:01.827Z,32.83
2018-08-06T08:53:01.822Z,32.76
2018-08-06T08:54:01.889Z,32.73
2018-08-06T08:55:01.829Z,32.59
2018-08-06T08:56:01.784Z,32.35
2018-08-06T08:57:01.783Z,32.28
2018-08-06T08:58:01.770Z,32.27
2018-08-06T08:59:01.722Z,32.16
2018-08-06T09:00:01.751Z,32.14
2018-08-06T09:01:01.735Z,32.16
2018-08-06T09:02:01.748Z,32.16
2018-08-06T09:03:01.678Z,31.95
2018-08-06T09:04:01.760Z,31.87
2018-08-06T09:05:01.675Z,31.79
2018-08-06T09:06:01.645Z,31.78
2018-08-06T09:07:01.680Z,31.75
2018-08-06T09:08:01.684Z,31.79
2018-08-06T09:09:01.659Z,31.68
2018-08-06T09:10:01.681Z,31.72
2018-08-06T09:11:01.637Z,31.59
2018-08-06T09:12:01.636Z,31.74
2018-08-06T09:13:01.636Z,31.71
2018-08-06T09:14:01.635Z,31.71
2018-08-06T09:15:01.761Z,31.71
2018-08-06T09:16:01.588Z,31.64
2018-08-06T09:17:01.579Z,31.71
2018-08-06T09:18:01.550Z,31.84
2018-08-06T09:19:01.553Z,32.05
2018-08-06T09:20:01.592Z,32.13
2018-08-06T09:21:01.538Z,32.07
2018-08-06T09:22:01.519Z,32.13
2018-08-06T09:23:01.514Z,32.19
2018-08-06T09:24:01.519Z,32.22
2018-08-06T09:25:01.588Z,32.25
2018-08-06T09:26:01.481Z,32.24
2018-08-06T09:27:01.490Z,32.34
2018-08-06T09:28:01.468Z,32.41
2018-08-06T09:29:01.458Z,32.34
2018-08-06T09:30:01.629Z,32.31
2018-08-06T09:31:01.432Z,32.10
2018-08-06T09:32:01.426Z,31.97
2018-08-06T09:33:01.410Z,32.05
2018-08-06T09:34:01.517Z,31.98
2018-08-06T09:35:01.411Z,31.97
2018-08-06T09:36:01.432Z,32.07
2018-08-06T09:37:01.384Z,32.14
2018-08-06T09:38:01.400Z,32.24
2018-08-06T09:39:01.353Z,32.27
2018-08-06T09:40:01.346Z,32.36
2018-08-06T09:41:01.317Z,32.28
2018-08-06T09:42:01.328Z,32.49
2018-08-06T09:43:01.312Z,32.62
2018-08-06T09:44:01.298Z,32.39
2018-08-06T09:45:01.299Z,32.36
2018-08-06T09:46:01.313Z,32.32
2018-08-06T09:47:01.371Z,32.36
2018-08-06T09:48:01.264Z,32.47
2018-08-06T09:49:01.252Z,32.58
2018-08-06T09:50:01.241Z,32.51
2018-08-06T09:51:01.251Z,32.50
2018-08-06T09:52:01.212Z,32.43
2018-08-06T09:53:01.218Z,32.51
2018-08-06T09:54:01.257Z,32.50
2018-08-06T09:55:01.289Z,32.34
2018-08-06T09:56:01.206Z,32.22
2018-08-06T09:57:01.185Z,32.28
2018-08-06T09:58:01.131Z,32.35
2018-08-06T09:59:01.161Z,32.36
2018-08-06T10:00:01.173Z,32.27
2018-08-06T10:01:01.152Z,32.10
2018-08-06T10:02:01.115Z,32.07
2018-08-06T10:03:01.110Z,31.98
2018-08-06T10:04:01.086Z,31.95
2018-08-06T10:05:01.084Z,31.98
2018-08-06T10:06:01.204Z,31.94
2018-08-06T10:07:01.017Z,31.95
2018-08-06T10:08:01.053Z,31.74
2018-08-06T10:09:01.042Z,31.74
2018-08-06T10:10:01.032Z,31.54
2018-08-06T10:11:01.105Z,31.45
2018-08-06T10:12:01.024Z,31.31
2018-08-06T10:13:01.000Z,31.18
2018-08-06T10:14:01.003Z,31.18
2018-08-06T10:15:00.989Z,31.30
2018-08-06T10:16:01.010Z,31.42
2018-08-06T10:17:00.952Z,31.49
2018-08-06T10:18:00.952Z,31.49
2018-08-06T10:19:01.017Z,31.46
2018-08-06T10:20:00.925Z,31.46
2018-08-06T10:21:00.968Z,31.47
2018-08-06T10:22:00.905Z,31.35
2018-08-06T10:23:00.903Z,31.30
2018-08-06T10:24:00.877Z,31.23
2018-08-06T10:25:00.877Z,31.18
2018-08-06T10:26:00.854Z,31.20
2018-08-06T10:27:00.812Z,31.28
2018-08-06T10:28:00.851Z,31.35
2018-08-06T10:29:00.888Z,31.42
2018-08-06T10:30:00.837Z,31.68
2018-08-06T10:31:00.845Z,31.53
2018-08-06T10:32:00.807Z,31.50
2018-08-06T10:33:00.796Z,31.60
2018-08-06T10:34:00.791Z,31.54
2018-08-06T10:35:00.771Z,31.59
2018-08-06T10:36:00.794Z,31.54
2018-08-06T10:37:00.755Z,31.60
2018-08-06T10:38:00.749Z,31.56
2018-08-06T10:39:00.705Z,31.47
2018-08-06T10:40:00.722Z,31.45
2018-08-06T10:41:00.729Z,31.30
2018-08-06T10:42:00.700Z,31.34
2018-08-06T10:43:00.694Z,31.28
2018-08-06T10:44:00.681Z,31.30
2018-08-06T10:45:00.678Z,31.28
2018-08-06T10:46:00.691Z,31.37
2018-08-06T10:47:00.649Z,31.40
2018-08-06T10:48:00.591Z,31.47
2018-08-06T10:49:00.633Z,31.50
2018-08-06T10:50:00.622Z,31.59
2018-08-06T10:51:00.643Z,31.46
2018-08-06T10:52:00.595Z,31.49
2018-08-06T10:53:00.588Z,31.42
2018-08-06T10:54:00.688Z,31.47
2018-08-06T10:55:00.569Z,31.47
2018-08-06T10:56:00.582Z,31.59
2018-08-06T10:57:00.553Z,31.72
2018-08-06T10:58:00.533Z,31.79
2018-08-06T10:59:07.538Z,31.94
2018-08-06T11:00:00.514Z,32.14
2018-08-06T11:01:00.518Z,32.16
2018-08-06T11:02:00.505Z,32.16
2018-08-06T11:03:00.491Z,32.21
2018-08-06T11:04:00.433Z,32.27
2018-08-06T11:05:00.469Z,32.32
2018-08-06T11:06:00.496Z,32.31
2018-08-06T11:07:00.470Z,32.41
2018-08-06T11:08:00.435Z,32.43
2018-08-06T11:09:00.418Z,32.34
2018-08-06T11:10:00.409Z,32.32
2018-08-06T11:11:00.403Z,32.09
2018-08-06T11:12:00.419Z,31.98
2018-08-06T11:13:00.441Z,31.97
2018-08-06T11:14:00.377Z,31.75
2018-08-06T11:15:00.362Z,31.59
2018-08-06T11:16:00.355Z,31.69
2018-08-06T11:17:00.394Z,31.59
2018-08-06T11:18:00.368Z,31.68
2018-08-06T11:19:00.319Z,31.68
2018-08-06T11:20:00.409Z,31.72
2018-08-06T11:21:00.300Z,31.54
2018-08-06T11:22:00.313Z,31.59
2018-08-06T11:23:00.281Z,31.59
2018-08-06T11:24:00.268Z,31.60
2018-08-06T11:25:00.261Z,31.49
2018-08-06T11:26:00.252Z,31.53
2018-08-06T11:27:00.265Z,31.46
2018-08-06T11:28:00.229Z,31.64
2018-08-06T11:29:00.233Z,31.60
2018-08-06T11:30:00.217Z,31.52
2018-08-06T11:31:00.209Z,31.59
